createdAt,value
2023-03-06T00:00:53.014Z,100.00
2023-03-06T00:03:20.719Z,100.00
2023-03-06T00:05:47.831Z,100.00
2023-03-06T00:08:15.274Z,100.00
2023-03-06T00:10:42.366Z,100.00
2023-03-06T00:13:12.674Z,100.00
2023-03-06T00:15:40.101Z,100.00
2023-03-06T00:18:07.857Z,100.00
2023-03-06T00:20:35.909Z,100.00
2023-03-06T00:23:03.184Z,100.00
2023-03-06T00:25:30.379Z,100.00
2023-03-06T00:27:57.593Z,100.00
2023-03-06T00:30:25.573Z,100.00
2023-03-06T00:32:54.638Z,100.00
2023-03-06T00:35:21.822Z,100.00
2023-03-06T00:37:49.195Z,100.00
2023-03-06T00:40:20.672Z,100.00
2023-03-06T00:42:48.129Z,100.00
2023-03-06T00:45:15.649Z,100.00
2023-03-06T00:47:42.970Z,100.00
2023-03-06T00:50:10.775Z,100.00
2023-03-06T00:52:37.975Z,100.00
2023-03-06T00:55:06.060Z,100.00
2023-03-06T00:57:33.247Z,100.00
2023-03-06T01:00:00.254Z,100.00
2023-03-06T01:02:27.413Z,100.00
2023-03-06T01:04:55.125Z,100.00
2023-03-06T01:07:22.385Z,100.00
2023-03-06T01:09:50.741Z,100.00
2023-03-06T01:12:17.724Z,100.00
2023-03-06T01:14:44.784Z,100.00
2023-03-06T01:17:11.845Z,100.00
2023-03-06T01:19:39.021Z,100.00
2023-03-06T01:22:06.024Z,100.00
2023-03-06T01:24:33.036Z,100.00
2023-03-06T01:27:00.116Z,100.00
2023-03-06T01:29:27.255Z,100.00
2023-03-06T01:31:54.310Z,100.00
2023-03-06T01:34:21.551Z,100.00
2023-03-06T01:36:48.745Z,100.00
2023-03-06T01:39:16.073Z,100.00
2023-03-06T01:41:43.269Z,100.00
2023-03-06T01:44:16.601Z,100.00
2023-03-06T01:46:45.029Z,100.00
2023-03-06T01:49:23.057Z,100.00
2023-03-06T01:52:01.949Z,100.00
2023-03-06T01:54:32.954Z,100.00
2023-03-06T01:57:12.231Z,100.00
2023-03-06T01:59:42.570Z,100.00
2023-03-06T02:02:12.248Z,100.00
2023-03-06T02:04:41.285Z,100.00
2023-03-06T02:07:09.376Z,100.00
2023-03-06T02:09:38.140Z,100.00
2023-03-06T02:12:11.340Z,100.00
2023-03-06T02:14:39.424Z,100.00
2023-03-06T02:17:08.865Z,100.00
2023-03-06T02:20:09.904Z,100.00
2023-03-06T02:22:46.186Z,100.00
2023-03-06T02:25:28.619Z,100.00
2023-03-06T02:27:56.698Z,100.00
2023-03-06T02:30:26.881Z,100.00
2023-03-06T02:32:54.676Z,100.00
2023-03-06T02:35:27.495Z,100.00
2023-03-06T02:37:57.588Z,100.00
2023-03-06T02:40:25.874Z,100.00
2023-03-06T02:42:56.942Z,100.00
2023-03-06T02:45:48.758Z,100.00
2023-03-06T02:48:17.308Z,100.00
2023-03-06T02:50:46.399Z,100.00
2023-03-06T02:53:15.664Z,100.00
2023-03-06T02:55:42.923Z,100.00
2023-03-06T02:58:10.786Z,100.00
2023-03-06T03:00:40.119Z,100.00
2023-03-06T03:03:09.406Z,100.00
2023-03-06T03:05:36.485Z,100.00
2023-03-06T03:08:13.675Z,100.00
2023-03-06T03:10:40.758Z,100.00
2023-03-06T03:13:07.909Z,100.00
2023-03-06T03:15:35.714Z,100.00
2023-03-06T03:18:03.606Z,100.00
2023-03-06T03:20:31.713Z,100.00
2023-03-06T03:22:59.038Z,100.00
2023-03-06T03:25:27.925Z,100.00
2023-03-06T03:27:57.670Z,100.00
2023-03-06T03:30:25.681Z,100.00
2023-03-06T03:32:52.890Z,100.00
2023-03-06T03:35:20.037Z,100.00
2023-03-06T03:37:47.568Z,100.00
2023-03-06T03:40:15.146Z,100.00
2023-03-06T03:42:42.295Z,100.00
2023-03-06T03:45:10.927Z,100.00
2023-03-06T03:47:38.140Z,100.00
2023-03-06T03:50:06.690Z,100.00
2023-03-06T03:52:33.730Z,100.00
2023-03-06T03:55:00.876Z,100.00
2023-03-06T03:57:30.590Z,100.00
2023-03-06T03:59:58.794Z,100.00
2023-03-06T04:02:40.790Z,100.00
2023-03-06T04:05:20.210Z,100.00
2023-03-06T04:07:48.579Z,100.00
2023-03-06T04:10:16.265Z,100.00
2023-03-06T04:12:43.912Z,100.00
2023-03-06T04:15:12.161Z,100.00
2023-03-06T04:17:40.225Z,100.00
2023-03-06T04:20:12.290Z,100.00
2023-03-06T04:22:39.646Z,100.00
2023-03-06T04:25:07.267Z,100.00
2023-03-06T04:27:36.253Z,100.00
2023-03-06T04:30:05.477Z,100.00
2023-03-06T04:32:33.300Z,100.00
2023-03-06T04:35:02.656Z,100.00
2023-03-06T04:37:35.322Z,100.00
2023-03-06T04:40:02.627Z,100.00
2023-03-06T04:42:30.500Z,100.00
2023-03-06T04:44:57.627Z,100.00
2023-03-06T04:47:25.393Z,100.00
2023-03-06T04:49:52.699Z,100.00
2023-03-06T04:52:19.632Z,100.00
2023-03-06T04:54:46.638Z,100.00
2023-03-06T04:57:14.310Z,100.00
2023-03-06T04:59:41.348Z,100.00
2023-03-06T05:02:08.605Z,100.00
2023-03-06T05:04:35.658Z,100.00
2023-03-06T05:07:02.686Z,100.00
2023-03-06T05:09:29.678Z,100.00
2023-03-06T05:11:56.702Z,100.00
2023-03-06T05:14:23.784Z,100.00
2023-03-06T05:16:50.945Z,100.00
2023-03-06T05:19:18.127Z,100.00
2023-03-06T05:21:45.392Z,100.00
2023-03-06T05:24:12.567Z,99.82
2023-03-06T05:26:39.610Z,100.00
2023-03-06T05:29:07.000Z,99.57
2023-03-06T05:31:34.034Z,99.72
2023-03-06T05:34:01.189Z,99.94
2023-03-06T05:36:28.204Z,99.48
2023-03-06T05:38:55.222Z,99.69
2023-03-06T05:41:22.275Z,98.87
2023-03-06T05:43:49.484Z,99.58
2023-03-06T05:46:16.604Z,98.99
2023-03-06T05:48:45.311Z,98.72
2023-03-06T05:51:13.710Z,99.67
2023-03-06T05:53:40.858Z,99.40
2023-03-06T05:56:11.344Z,99.34
2023-03-06T05:58:39.145Z,98.13
2023-03-06T06:01:16.582Z,96.72
2023-03-06T06:03:44.878Z,96.96
2023-03-06T06:06:14.554Z,95.85
2023-03-06T06:08:42.392Z,96.69
2023-03-06T06:11:11.710Z,95.68
2023-03-06T06:13:39.580Z,94.83
2023-03-06T06:16:11.818Z,94.87
2023-03-06T06:18:41.108Z,95.21
2023-03-06T06:21:10.642Z,93.83
2023-03-06T06:23:37.861Z,94.88
2023-03-06T06:26:07.360Z,95.04
2023-03-06T06:28:34.515Z,94.01
2023-03-06T06:31:07.125Z,94.06
2023-03-06T06:33:34.207Z,93.59
2023-03-06T06:36:01.321Z,93.26
2023-03-06T06:38:28.365Z,92.87
2023-03-06T06:41:29.156Z,91.90
2023-03-06T06:43:42.875Z,91.94
2023-03-06T06:46:32.337Z,92.26
2023-03-06T06:48:56.955Z,92.75
2023-03-06T06:51:24.599Z,91.01
2023-03-06T06:53:55.656Z,91.62
2023-03-06T06:56:28.695Z,90.92
2023-03-06T06:59:15.710Z,91.24
2023-03-06T07:01:42.946Z,90.45
2023-03-06T07:04:15.201Z,89.35
2023-03-06T07:06:42.942Z,89.88
2023-03-06T07:09:10.138Z,89.03
2023-03-06T07:11:38.589Z,89.48
2023-03-06T07:14:06.154Z,89.65
2023-03-06T07:16:33.455Z,90.30
2023-03-06T07:19:00.682Z,90.76
2023-03-06T07:21:27.988Z,89.55
2023-03-06T07:23:57.631Z,88.93
2023-03-06T07:26:26.218Z,89.08
2023-03-06T07:28:57.554Z,89.15
2023-03-06T07:31:27.429Z,88.87
2023-03-06T07:33:55.269Z,86.51
2023-03-06T07:36:23.913Z,85.38
2023-03-06T07:38:50.927Z,84.31
2023-03-06T07:41:21.876Z,84.53
2023-03-06T07:43:50.382Z,83.49
2023-03-06T07:46:17.803Z,82.64
2023-03-06T07:48:44.938Z,82.45
2023-03-06T07:51:21.449Z,81.42
2023-03-06T07:53:49.538Z,80.13
2023-03-06T07:56:16.721Z,78.33
2023-03-06T07:58:46.250Z,79.07
2023-03-06T08:01:19.891Z,78.04
2023-03-06T08:03:50.228Z,77.54
2023-03-06T08:06:23.063Z,77.34
2023-03-06T08:08:51.839Z,77.85
2023-03-06T08:11:21.672Z,78.15
2023-03-06T08:13:49.233Z,77.55
2023-03-06T08:16:17.646Z,77.83
2023-03-06T08:18:46.333Z,77.06
2023-03-06T08:21:16.166Z,78.53
2023-03-06T08:23:44.054Z,78.58
2023-03-06T08:26:33.050Z,78.44
2023-03-06T08:29:01.998Z,78.43
2023-03-06T08:31:33.785Z,78.16
2023-03-06T08:34:04.264Z,79.08
2023-03-06T08:36:31.584Z,79.43
2023-03-06T08:38:58.886Z,78.53
2023-03-06T08:41:26.398Z,78.43
2023-03-06T08:43:53.422Z,77.74
2023-03-06T08:46:23.682Z,78.35
2023-03-06T08:48:50.972Z,77.92
2023-03-06T08:51:18.571Z,78.27
2023-03-06T08:53:46.292Z,77.85
2023-03-06T08:56:39.684Z,77.21
2023-03-06T08:59:07.181Z,76.55
2023-03-06T09:01:36.843Z,76.99
2023-03-06T09:04:07.675Z,76.20
2023-03-06T09:06:39.027Z,75.45
2023-03-06T09:09:07.322Z,74.90
2023-03-06T09:11:34.599Z,74.88
2023-03-06T09:14:01.744Z,74.22
2023-03-06T09:16:28.823Z,74.57
2023-03-06T09:18:55.898Z,73.66
2023-03-06T09:21:23.495Z,72.79
2023-03-06T09:23:50.888Z,71.24
2023-03-06T09:26:18.748Z,70.19
2023-03-06T09:28:46.888Z,70.46
2023-03-06T09:31:19.806Z,67.99
2023-03-06T09:33:47.627Z,66.70
2023-03-06T09:36:18.596Z,68.45
2023-03-06T09:38:48.009Z,68.69
2023-03-06T09:41:40.513Z,69.70
2023-03-06T09:44:14.618Z,71.59
2023-03-06T09:46:44.669Z,72.72
2023-03-06T09:49:30.503Z,73.72
2023-03-06T09:52:51.896Z,73.86
2023-03-06T09:55:21.644Z,73.60
2023-03-06T09:57:58.819Z,73.33
2023-03-06T10:00:32.690Z,73.78
2023-03-06T10:03:27.622Z,72.64
2023-03-06T10:06:12.976Z,73.66
2023-03-06T10:08:55.593Z,74.45
2023-03-06T10:11:28.098Z,74.29
2023-03-06T10:14:14.243Z,75.14
2023-03-06T10:16:41.639Z,73.88
2023-03-06T10:19:19.946Z,71.50
2023-03-06T10:22:14.247Z,70.53
2023-03-06T10:24:58.095Z,71.06
2023-03-06T10:27:37.769Z,70.88
2023-03-06T10:30:29.483Z,69.41
2023-03-06T10:33:18.091Z,69.57
2023-03-06T10:35:51.716Z,71.38
2023-03-06T10:38:20.356Z,74.23
2023-03-06T10:41:19.983Z,75.50
2023-03-06T10:44:05.218Z,76.79
2023-03-06T10:46:44.381Z,76.87
2023-03-06T10:49:14.433Z,76.70
2023-03-06T10:51:57.007Z,76.15
2023-03-06T10:54:24.584Z,76.53
2023-03-06T10:56:51.814Z,76.04
2023-03-06T10:59:20.255Z,74.77
2023-03-06T11:01:50.653Z,74.78
2023-03-06T11:04:33.606Z,74.22
2023-03-06T11:07:21.048Z,73.30
2023-03-06T11:09:57.395Z,72.96
2023-03-06T11:12:36.712Z,73.11
2023-03-06T11:15:18.500Z,72.89
2023-03-06T11:17:51.289Z,73.54
2023-03-06T11:20:23.377Z,74.39
2023-03-06T11:22:56.713Z,76.53
2023-03-06T11:25:30.892Z,77.29
2023-03-06T11:28:08.642Z,79.01
2023-03-06T11:30:43.198Z,80.63
2023-03-06T11:33:35.436Z,80.81
2023-03-06T11:36:23.443Z,80.36
2023-03-06T11:38:53.727Z,79.02
2023-03-06T11:41:39.533Z,76.57
2023-03-06T11:44:21.173Z,74.16
2023-03-06T11:46:54.059Z,74.89
2023-03-06T11:49:47.339Z,74.51
2023-03-06T11:52:31.108Z,73.61
2023-03-06T11:54:58.343Z,71.48
2023-03-06T11:57:39.943Z,70.31
2023-03-06T12:00:17.267Z,69.37
2023-03-06T12:03:03.389Z,67.44
2023-03-06T12:05:59.600Z,68.00
2023-03-06T12:08:48.719Z,67.73
2023-03-06T12:11:23.322Z,68.47
2023-03-06T12:14:28.697Z,69.53
2023-03-06T12:17:05.848Z,68.05
2023-03-06T12:19:52.260Z,67.39
2023-03-06T12:22:29.138Z,67.66
2023-03-06T12:25:04.204Z,67.69
2023-03-06T12:27:54.350Z,67.07
2023-03-06T12:30:39.528Z,68.64
2023-03-06T12:33:24.645Z,68.72
2023-03-06T12:36:13.018Z,69.43
2023-03-06T12:39:04.605Z,69.03
2023-03-06T12:42:11.444Z,71.44
2023-03-06T12:44:47.833Z,75.26
2023-03-06T12:47:20.306Z,73.01
2023-03-06T12:50:04.180Z,70.61
2023-03-06T12:52:34.134Z,73.59
2023-03-06T12:55:07.088Z,76.54
2023-03-06T12:57:34.163Z,77.01
2023-03-06T13:00:01.243Z,77.52
2023-03-06T13:02:37.249Z,78.62
2023-03-06T13:05:38.056Z,80.51
2023-03-06T13:08:20.662Z,81.87
2023-03-06T13:11:21.962Z,82.68
2023-03-06T13:13:49.669Z,84.19
2023-03-06T13:16:40.596Z,85.03
2023-03-06T13:22:33.536Z,85.66
2023-03-06T13:28:59.016Z,90.91
2023-03-06T13:31:36.352Z,90.18
2023-03-06T13:34:33.633Z,90.82
2023-03-06T13:43:27.879Z,91.68
2023-03-06T13:46:27.565Z,91.72
2023-03-06T13:49:22.586Z,90.75
2023-03-06T13:52:30.020Z,91.48
2023-03-06T13:55:13.690Z,90.86
2023-03-06T13:57:40.605Z,90.98
2023-03-06T14:00:33.901Z,90.70
2023-03-06T14:03:15.467Z,90.56
2023-03-06T14:05:47.980Z,90.83
2023-03-06T14:08:17.764Z,92.64
2023-03-06T14:10:47.820Z,91.85
2023-03-06T14:13:20.373Z,92.11
2023-03-06T14:15:53.359Z,92.15
2023-03-06T14:18:42.483Z,93.54
2023-03-06T14:21:16.105Z,94.44
2023-03-06T14:23:47.596Z,96.10
2023-03-06T14:26:22.092Z,96.25
2023-03-06T14:28:52.693Z,94.99
2023-03-06T14:31:29.789Z,94.55
2023-03-06T14:34:05.415Z,94.24
2023-03-06T14:36:43.502Z,94.11
2023-03-06T14:39:21.566Z,90.77
2023-03-06T14:41:49.351Z,91.41
2023-03-06T14:44:22.531Z,89.10
2023-03-06T14:46:57.944Z,89.61
2023-03-06T14:49:26.065Z,89.04
2023-03-06T14:51:56.002Z,88.16
2023-03-06T14:54:37.038Z,88.44
2023-03-06T14:57:09.122Z,88.02
2023-03-06T14:59:51.835Z,87.37
2023-03-06T15:02:23.552Z,86.60
2023-03-06T15:05:00.470Z,86.92
2023-03-06T15:07:30.923Z,86.27
2023-03-06T15:09:59.436Z,86.64
2023-03-06T15:12:33.995Z,87.45
2023-03-06T15:15:23.630Z,87.23
2023-03-06T15:17:50.590Z,87.87
2023-03-06T15:20:41.365Z,89.12
2023-03-06T15:23:25.722Z,89.52
2023-03-06T15:26:00.952Z,88.62
2023-03-06T15:28:35.521Z,87.99
2023-03-06T15:31:22.551Z,90.12
2023-03-06T15:34:07.890Z,88.84
2023-03-06T15:36:40.536Z,90.93
2023-03-06T15:39:44.400Z,89.77
2023-03-06T15:42:23.525Z,91.81
2023-03-06T15:44:55.480Z,91.49
2023-03-06T15:47:23.582Z,91.79
2023-03-06T15:49:53.257Z,91.36
2023-03-06T15:52:21.550Z,91.66
2023-03-06T15:54:48.902Z,93.63
2023-03-06T15:57:25.083Z,92.01
2023-03-06T15:59:52.759Z,92.43
2023-03-06T16:02:21.718Z,93.50
2023-03-06T16:04:49.518Z,92.32
2023-03-06T16:07:16.966Z,93.49
2023-03-06T16:09:44.541Z,93.18
2023-03-06T16:12:20.560Z,92.67
2023-03-06T16:14:48.805Z,91.99
2023-03-06T16:17:22.027Z,92.63
2023-03-06T16:19:49.496Z,93.29
2023-03-06T16:22:16.507Z,92.81
2023-03-06T16:24:43.546Z,92.24
2023-03-06T16:27:18.926Z,91.51
2023-03-06T16:29:47.481Z,91.47
2023-03-06T16:35:24.477Z,92.81
2023-03-06T16:41:08.574Z,92.89
2023-03-06T16:43:35.691Z,93.08
2023-03-06T16:46:07.681Z,92.30
2023-03-06T16:48:34.765Z,92.48
2023-03-06T16:51:01.907Z,93.01
2023-03-06T16:53:28.936Z,93.21
2023-03-06T16:55:56.002Z,93.13
2023-03-06T16:58:23.004Z,92.67
2023-03-06T17:00:50.367Z,93.18
2023-03-06T17:03:17.954Z,94.41
2023-03-06T17:05:45.162Z,94.15
2023-03-06T17:08:12.410Z,94.46
2023-03-06T17:10:41.430Z,95.01
2023-03-06T17:13:08.824Z,95.53
2023-03-06T17:15:35.865Z,93.88
2023-03-06T17:18:02.974Z,95.69
2023-03-06T17:20:30.059Z,94.33
2023-03-06T17:22:57.097Z,94.15
2023-03-06T17:25:24.376Z,94.49
2023-03-06T17:27:51.308Z,93.65
2023-03-06T17:30:18.541Z,93.97
2023-03-06T17:32:45.590Z,93.86
2023-03-06T17:35:12.531Z,94.93
2023-03-06T17:37:39.685Z,93.65
2023-03-06T17:40:10.243Z,94.75
2023-03-06T17:42:37.258Z,93.36
2023-03-06T17:45:05.346Z,94.03
2023-03-06T17:47:32.599Z,93.45
2023-03-06T17:49:59.640Z,93.98
2023-03-06T17:52:26.754Z,94.63
2023-03-06T17:54:53.744Z,93.52
2023-03-06T17:57:20.782Z,92.98
2023-03-06T17:59:48.852Z,94.01
2023-03-06T18:02:16.496Z,93.35
2023-03-06T18:04:43.526Z,93.14
2023-03-06T18:07:11.028Z,93.00
2023-03-06T18:09:38.669Z,92.53
2023-03-06T18:12:05.815Z,93.18
2023-03-06T18:14:32.789Z,93.38
2023-03-06T18:17:00.203Z,93.76
2023-03-06T18:19:27.330Z,92.10
2023-03-06T18:21:57.014Z,93.73
2023-03-06T18:24:27.724Z,94.72
2023-03-06T18:26:55.067Z,94.22
2023-03-06T18:29:25.391Z,93.75
2023-03-06T18:31:53.372Z,94.41
2023-03-06T18:37:12.920Z,94.03
2023-03-06T18:39:40.070Z,95.03
2023-03-06T18:42:07.615Z,94.68
2023-03-06T18:44:35.145Z,94.76
2023-03-06T18:47:02.070Z,96.18
2023-03-06T18:49:29.028Z,96.65
2023-03-06T18:51:56.074Z,96.66
2023-03-06T18:54:28.524Z,96.99
2023-03-06T18:56:55.715Z,97.11
2023-03-06T18:59:23.610Z,97.68
2023-03-06T19:01:57.605Z,97.66
2023-03-06T19:04:25.839Z,97.57
2023-03-06T19:06:54.632Z,98.51
2023-03-06T19:09:25.786Z,98.58
2023-03-06T19:11:54.833Z,98.96
2023-03-06T19:14:21.891Z,99.43
2023-03-06T19:16:48.889Z,98.69
2023-03-06T19:19:41.154Z,99.27
2023-03-06T19:22:08.114Z,99.63
2023-03-06T19:24:35.109Z,99.51
2023-03-06T19:27:02.125Z,99.46
2023-03-06T19:29:29.066Z,99.07
2023-03-06T19:31:57.287Z,98.91
2023-03-06T19:34:24.592Z,98.93
2023-03-06T19:36:51.525Z,99.28
2023-03-06T19:39:18.556Z,98.50
2023-03-06T19:41:47.401Z,98.65
2023-03-06T19:44:16.381Z,97.58
2023-03-06T19:46:43.708Z,97.83
2023-03-06T19:49:17.025Z,97.86
2023-03-06T19:51:44.580Z,96.61
2023-03-06T19:54:12.749Z,97.43
2023-03-06T19:56:40.265Z,96.62
2023-03-06T19:59:07.329Z,97.01
2023-03-06T20:01:34.500Z,96.81
2023-03-06T20:04:01.776Z,96.78
2023-03-06T20:06:33.728Z,96.17
2023-03-06T20:09:02.528Z,96.13
2023-03-06T20:11:30.142Z,96.06
2023-03-06T20:14:02.927Z,96.25
2023-03-06T20:16:31.319Z,96.13
2023-03-06T20:19:00.418Z,95.68
2023-03-06T20:21:30.236Z,95.65
2023-03-06T20:23:58.365Z,96.09
2023-03-06T20:26:28.943Z,95.59
2023-03-06T20:28:56.892Z,95.65
2023-03-06T20:31:26.214Z,95.13
2023-03-06T20:33:55.241Z,95.64
2023-03-06T20:36:25.335Z,94.78
2023-03-06T20:38:52.287Z,94.83
2023-03-06T20:41:23.363Z,94.72
2023-03-06T20:43:51.323Z,94.34
2023-03-06T20:46:19.281Z,94.03
2023-03-06T20:48:49.548Z,93.68
2023-03-06T20:51:17.913Z,93.58
2023-03-06T20:53:45.860Z,92.87
2023-03-06T20:56:14.766Z,93.02
2023-03-06T20:58:41.692Z,91.89
2023-03-06T21:01:08.711Z,91.93
2023-03-06T21:03:35.723Z,92.48
2023-03-06T21:06:02.776Z,92.60
2023-03-06T21:08:31.493Z,92.76
2023-03-06T21:10:58.461Z,92.17
2023-03-06T21:13:25.384Z,91.55
2023-03-06T21:15:52.625Z,91.51
2023-03-06T21:18:19.521Z,91.48
2023-03-06T21:20:46.395Z,91.39
2023-03-06T21:23:13.401Z,91.68
2023-03-06T21:25:51.482Z,92.02
2023-03-06T21:28:19.116Z,90.82
2023-03-06T21:30:46.672Z,91.44
2023-03-06T21:33:14.001Z,91.74
2023-03-06T21:35:42.099Z,90.96
2023-03-06T21:38:09.781Z,90.59
2023-03-06T21:40:37.530Z,91.33
2023-03-06T21:43:04.942Z,91.13
2023-03-06T21:45:32.507Z,90.41
2023-03-06T21:48:00.296Z,90.91
2023-03-06T21:50:28.110Z,90.28
2023-03-06T21:52:56.630Z,90.20
2023-03-06T21:55:23.665Z,89.78
2023-03-06T21:57:53.086Z,90.15
2023-03-06T22:00:23.213Z,89.67
2023-03-06T22:02:50.265Z,89.00
2023-03-06T22:05:17.244Z,88.86
2023-03-06T22:07:44.577Z,88.92
2023-03-06T22:10:14.421Z,88.54
2023-03-06T22:12:42.218Z,88.85
2023-03-06T22:15:09.852Z,88.94
2023-03-06T22:17:36.912Z,88.94
2023-03-06T22:20:04.511Z,88.49
2023-03-06T22:22:31.694Z,88.50
2023-03-06T22:24:58.706Z,89.21
2023-03-06T22:27:25.729Z,89.02
2023-03-06T22:29:53.311Z,88.39
2023-03-06T22:32:20.647Z,87.83
2023-03-06T22:34:47.675Z,87.82
2023-03-06T22:37:14.556Z,88.20
2023-03-06T22:39:41.490Z,88.33
2023-03-06T22:42:08.372Z,87.30
2023-03-06T22:44:35.521Z,87.04
2023-03-06T22:47:02.479Z,87.15
2023-03-06T22:49:29.471Z,87.29
2023-03-06T22:51:56.462Z,85.94
2023-03-06T22:54:23.399Z,86.48
2023-03-06T22:56:50.316Z,86.30
2023-03-06T22:59:17.376Z,85.00
2023-03-06T23:01:44.352Z,85.70
2023-03-06T23:04:11.501Z,84.43
2023-03-06T23:06:40.908Z,84.20
2023-03-06T23:09:14.803Z,84.07
2023-03-06T23:12:00.241Z,84.44
2023-03-06T23:14:49.768Z,83.69
2023-03-06T23:17:36.442Z,84.13
2023-03-06T23:20:22.498Z,82.59
2023-03-06T23:23:08.252Z,82.89
2023-03-06T23:25:41.618Z,82.79
2023-03-06T23:28:08.598Z,83.61
2023-03-06T23:30:38.020Z,82.51
2023-03-06T23:33:05.278Z,83.56
2023-03-06T23:35:33.689Z,82.54
2023-03-06T23:38:02.476Z,83.26
2023-03-06T23:40:31.592Z,83.29
2023-03-06T23:42:58.446Z,82.94
2023-03-06T23:45:25.487Z,82.17
2023-03-06T23:47:52.510Z,82.70
2023-03-06T23:50:19.719Z,82.28
2023-03-06T23:52:46.705Z,81.99
2023-03-06T23:55:14.147Z,82.80
2023-03-06T23:57:41.123Z,81.98
